sensor_id;sensor_type;location;lat;lon;timestamp;P1;durP1;ratioP1;P2;durP2;ratioP2
48534;SDS011;34323;52.022;5.686;2023-05-10T00:02:08;36.00;;;20.85;;
48534;SDS011;34323;52.022;5.686;2023-05-10T00:04:33;40.95;;;21.83;;
48534;SDS011;34323;52.022;5.686;2023-05-10T00:06:59;44.42;;;22.95;;
48534;SDS011;34323;52.022;5.686;2023-05-10T00:09:24;41.47;;;21.23;;
48534;SDS011;34323;52.022;5.686;2023-05-10T00:11:50;41.42;;;22.30;;
48534;SDS011;34323;52.022;5.686;2023-05-10T00:14:15;51.78;;;25.00;;
48534;SDS011;34323;52.022;5.686;2023-05-10T00:16:41;41.95;;;22.63;;
48534;SDS011;34323;52.022;5.686;2023-05-10T00:19:07;47.00;;;25.08;;
48534;SDS011;34323;52.022;5.686;2023-05-10T00:21:32;45.42;;;24.23;;
48534;SDS011;34323;52.022;5.686;2023-05-10T00:23:58;48.83;;;25.15;;
48534;SDS011;34323;52.022;5.686;2023-05-10T00:26:24;49.30;;;26.65;;
48534;SDS011;34323;52.022;5.686;2023-05-10T00:28:50;54.60;;;26.88;;
48534;SDS011;34323;52.022;5.686;2023-05-10T00:31:15;49.80;;;26.85;;
48534;SDS011;34323;52.022;5.686;2023-05-10T00:33:41;50.28;;;27.23;;
48534;SDS011;34323;52.022;5.686;2023-05-10T00:36:07;55.50;;;26.67;;
48534;SDS011;34323;52.022;5.686;2023-05-10T00:38:33;50.10;;;25.40;;
48534;SDS011;34323;52.022;5.686;2023-05-10T00:40:58;47.42;;;25.05;;
48534;SDS011;34323;52.022;5.686;2023-05-10T00:43:24;45.97;;;25.73;;
48534;SDS011;34323;52.022;5.686;2023-05-10T00:45:49;50.83;;;27.30;;
48534;SDS011;34323;52.022;5.686;2023-05-10T00:48:15;51.90;;;26.15;;
48534;SDS011;34323;52.022;5.686;2023-05-10T00:50:41;51.15;;;26.92;;
48534;SDS011;34323;52.022;5.686;2023-05-10T00:53:07;50.58;;;27.65;;
48534;SDS011;34323;52.022;5.686;2023-05-10T00:55:33;53.63;;;26.58;;
48534;SDS011;34323;52.022;5.686;2023-05-10T00:57:59;45.05;;;25.77;;
48534;SDS011;34323;52.022;5.686;2023-05-10T01:00:25;53.60;;;28.33;;
48534;SDS011;34323;52.022;5.686;2023-05-10T01:02:51;49.55;;;28.23;;
48534;SDS011;34323;52.022;5.686;2023-05-10T01:05:18;43.15;;;24.95;;
48534;SDS011;34323;52.022;5.686;2023-05-10T01:07:43;55.95;;;28.45;;
48534;SDS011;34323;52.022;5.686;2023-05-10T01:10:09;57.03;;;30.98;;
48534;SDS011;34323;52.022;5.686;2023-05-10T01:12:36;69.40;;;33.47;;
48534;SDS011;34323;52.022;5.686;2023-05-10T01:15:05;70.10;;;33.33;;
48534;SDS011;34323;52.022;5.686;2023-05-10T01:17:35;75.43;;;37.08;;
48534;SDS011;34323;52.022;5.686;2023-05-10T01:20:04;76.22;;;36.25;;
48534;SDS011;34323;52.022;5.686;2023-05-10T01:22:42;72.22;;;33.22;;
48534;SDS011;34323;52.022;5.686;2023-05-10T01:25:44;71.43;;;32.92;;
48534;SDS011;34323;52.022;5.686;2023-05-10T01:34:16;71.80;;;34.65;;
48534;SDS011;34323;52.022;5.686;2023-05-10T01:36:48;67.65;;;31.27;;
48534;SDS011;34323;52.022;5.686;2023-05-10T01:39:24;69.38;;;31.05;;
48534;SDS011;34323;52.022;5.686;2023-05-10T01:42:03;68.80;;;32.28;;
48534;SDS011;34323;52.022;5.686;2023-05-10T01:44:46;68.35;;;31.73;;
48534;SDS011;34323;52.022;5.686;2023-05-10T01:50:01;72.03;;;31.85;;
48534;SDS011;34323;52.022;5.686;2023-05-10T01:52:40;65.95;;;29.60;;
48534;SDS011;34323;52.022;5.686;2023-05-10T01:55:09;64.15;;;28.52;;
48534;SDS011;34323;52.022;5.686;2023-05-10T01:57:43;65.93;;;30.75;;
48534;SDS011;34323;52.022;5.686;2023-05-10T02:00:11;64.38;;;29.17;;
48534;SDS011;34323;52.022;5.686;2023-05-10T02:02:39;70.03;;;29.40;;
48534;SDS011;34323;52.022;5.686;2023-05-10T02:05:07;59.65;;;27.42;;
48534;SDS011;34323;52.022;5.686;2023-05-10T02:07:34;64.15;;;29.13;;
48534;SDS011;34323;52.022;5.686;2023-05-10T02:10:02;53.50;;;26.55;;
48534;SDS011;34323;52.022;5.686;2023-05-10T02:12:31;59.78;;;27.52;;
48534;SDS011;34323;52.022;5.686;2023-05-10T02:15:00;55.50;;;25.98;;
48534;SDS011;34323;52.022;5.686;2023-05-10T02:17:29;58.90;;;25.88;;
48534;SDS011;34323;52.022;5.686;2023-05-10T02:19:56;65.80;;;27.35;;
48534;SDS011;34323;52.022;5.686;2023-05-10T02:22:24;66.65;;;28.05;;
48534;SDS011;34323;52.022;5.686;2023-05-10T02:24:52;68.05;;;29.42;;
48534;SDS011;34323;52.022;5.686;2023-05-10T02:27:20;74.10;;;29.95;;
48534;SDS011;34323;52.022;5.686;2023-05-10T02:29:47;76.65;;;29.83;;
48534;SDS011;34323;52.022;5.686;2023-05-10T02:32:14;70.88;;;29.70;;
48534;SDS011;34323;52.022;5.686;2023-05-10T02:34:41;73.60;;;30.50;;
48534;SDS011;34323;52.022;5.686;2023-05-10T02:37:09;81.50;;;31.33;;
48534;SDS011;34323;52.022;5.686;2023-05-10T02:39:35;62.13;;;27.50;;
48534;SDS011;34323;52.022;5.686;2023-05-10T02:42:03;72.45;;;29.08;;
48534;SDS011;34323;52.022;5.686;2023-05-10T02:44:30;79.18;;;30.23;;
48534;SDS011;34323;52.022;5.686;2023-05-10T02:46:56;76.55;;;30.90;;
48534;SDS011;34323;52.022;5.686;2023-05-10T02:49:23;72.65;;;31.48;;
48534;SDS011;34323;52.022;5.686;2023-05-10T02:51:50;75.72;;;30.98;;
48534;SDS011;34323;52.022;5.686;2023-05-10T02:54:19;74.00;;;31.83;;
48534;SDS011;34323;52.022;5.686;2023-05-10T02:56:47;71.68;;;31.98;;
48534;SDS011;34323;52.022;5.686;2023-05-10T02:59:18;71.55;;;31.30;;
48534;SDS011;34323;52.022;5.686;2023-05-10T03:01:44;79.25;;;31.60;;
48534;SDS011;34323;52.022;5.686;2023-05-10T03:04:10;73.57;;;31.42;;
48534;SDS011;34323;52.022;5.686;2023-05-10T03:06:35;78.43;;;33.63;;
48534;SDS011;34323;52.022;5.686;2023-05-10T03:09:01;78.03;;;33.53;;
48534;SDS011;34323;52.022;5.686;2023-05-10T03:14:25;85.90;;;32.40;;
48534;SDS011;34323;52.022;5.686;2023-05-10T03:17:25;71.30;;;30.58;;
48534;SDS011;34323;52.022;5.686;2023-05-10T03:20:16;84.03;;;33.42;;
48534;SDS011;34323;52.022;5.686;2023-05-10T03:23:00;89.63;;;33.28;;
48534;SDS011;34323;52.022;5.686;2023-05-10T03:25:31;83.68;;;32.22;;
48534;SDS011;34323;52.022;5.686;2023-05-10T03:27:58;76.60;;;32.30;;
48534;SDS011;34323;52.022;5.686;2023-05-10T03:30:26;75.47;;;30.73;;
48534;SDS011;34323;52.022;5.686;2023-05-10T03:32:52;73.50;;;30.70;;
48534;SDS011;34323;52.022;5.686;2023-05-10T03:35:19;74.82;;;30.55;;
48534;SDS011;34323;52.022;5.686;2023-05-10T03:37:44;73.05;;;31.85;;
48534;SDS011;34323;52.022;5.686;2023-05-10T03:40:10;77.03;;;33.17;;
48534;SDS011;34323;52.022;5.686;2023-05-10T03:42:36;69.57;;;31.30;;
48534;SDS011;34323;52.022;5.686;2023-05-10T03:45:01;78.15;;;33.13;;
48534;SDS011;34323;52.022;5.686;2023-05-10T03:47:27;81.72;;;34.35;;
48534;SDS011;34323;52.022;5.686;2023-05-10T03:49:54;77.57;;;34.80;;
48534;SDS011;34323;52.022;5.686;2023-05-10T03:52:20;79.40;;;33.38;;
48534;SDS011;34323;52.022;5.686;2023-05-10T03:54:45;72.43;;;33.72;;
48534;SDS011;34323;52.022;5.686;2023-05-10T03:57:11;73.07;;;32.00;;
48534;SDS011;34323;52.022;5.686;2023-05-10T03:59:36;68.18;;;31.38;;
48534;SDS011;34323;52.022;5.686;2023-05-10T04:02:02;68.82;;;30.60;;
48534;SDS011;34323;52.022;5.686;2023-05-10T04:04:27;68.15;;;32.72;;
48534;SDS011;34323;52.022;5.686;2023-05-10T04:06:53;75.30;;;32.67;;
48534;SDS011;34323;52.022;5.686;2023-05-10T04:09:19;69.60;;;30.58;;
48534;SDS011;34323;52.022;5.686;2023-05-10T04:11:45;71.35;;;30.05;;
48534;SDS011;34323;52.022;5.686;2023-05-10T04:14:10;67.75;;;30.63;;
48534;SDS011;34323;52.022;5.686;2023-05-10T04:16:36;68.15;;;29.05;;
48534;SDS011;34323;52.022;5.686;2023-05-10T04:19:01;77.80;;;30.50;;
48534;SDS011;34323;52.022;5.686;2023-05-10T04:21:27;70.47;;;30.48;;
48534;SDS011;34323;52.022;5.686;2023-05-10T04:23:53;73.63;;;30.85;;
48534;SDS011;34323;52.022;5.686;2023-05-10T04:26:18;73.20;;;31.50;;
48534;SDS011;34323;52.022;5.686;2023-05-10T04:28:45;74.82;;;32.35;;
48534;SDS011;34323;52.022;5.686;2023-05-10T04:31:10;79.63;;;33.17;;
48534;SDS011;34323;52.022;5.686;2023-05-10T04:33:36;72.38;;;31.08;;
48534;SDS011;34323;52.022;5.686;2023-05-10T04:36:02;77.55;;;31.08;;
48534;SDS011;34323;52.022;5.686;2023-05-10T04:38:28;75.63;;;31.73;;
48534;SDS011;34323;52.022;5.686;2023-05-10T04:40:55;69.55;;;30.10;;
48534;SDS011;34323;52.022;5.686;2023-05-10T04:43:32;74.40;;;28.38;;
48534;SDS011;34323;52.022;5.686;2023-05-10T04:45:57;67.10;;;28.42;;
48534;SDS011;34323;52.022;5.686;2023-05-10T04:48:23;68.75;;;29.42;;
48534;SDS011;34323;52.022;5.686;2023-05-10T04:50:48;64.55;;;25.75;;
48534;SDS011;34323;52.022;5.686;2023-05-10T04:53:14;69.00;;;28.45;;
48534;SDS011;34323;52.022;5.686;2023-05-10T04:55:39;64.07;;;26.65;;
48534;SDS011;34323;52.022;5.686;2023-05-10T04:58:05;68.95;;;26.73;;
48534;SDS011;34323;52.022;5.686;2023-05-10T05:00:31;68.72;;;26.75;;
48534;SDS011;34323;52.022;5.686;2023-05-10T05:02:57;71.35;;;26.83;;
48534;SDS011;34323;52.022;5.686;2023-05-10T05:05:23;74.38;;;27.30;;
48534;SDS011;34323;52.022;5.686;2023-05-10T05:07:48;76.70;;;30.92;;
48534;SDS011;34323;52.022;5.686;2023-05-10T05:10:14;78.10;;;30.65;;
48534;SDS011;34323;52.022;5.686;2023-05-10T05:12:40;88.13;;;34.33;;
48534;SDS011;34323;52.022;5.686;2023-05-10T05:15:05;73.78;;;30.98;;
48534;SDS011;34323;52.022;5.686;2023-05-10T05:17:33;88.15;;;34.63;;
48534;SDS011;34323;52.022;5.686;2023-05-10T05:19:58;90.18;;;33.00;;
48534;SDS011;34323;52.022;5.686;2023-05-10T05:22:24;83.50;;;32.13;;
48534;SDS011;34323;52.022;5.686;2023-05-10T05:24:52;83.18;;;32.65;;
48534;SDS011;34323;52.022;5.686;2023-05-10T05:27:21;86.57;;;32.83;;
48534;SDS011;34323;52.022;5.686;2023-05-10T05:29:49;94.40;;;37.08;;
48534;SDS011;34323;52.022;5.686;2023-05-10T05:32:16;84.63;;;34.75;;
48534;SDS011;34323;52.022;5.686;2023-05-10T05:34:41;84.15;;;34.33;;
48534;SDS011;34323;52.022;5.686;2023-05-10T05:37:12;87.32;;;35.17;;
48534;SDS011;34323;52.022;5.686;2023-05-10T05:39:38;87.65;;;33.17;;
48534;SDS011;34323;52.022;5.686;2023-05-10T05:42:04;69.60;;;31.23;;
48534;SDS011;34323;52.022;5.686;2023-05-10T05:44:29;74.82;;;31.67;;
48534;SDS011;34323;52.022;5.686;2023-05-10T05:46:55;69.22;;;30.98;;
48534;SDS011;34323;52.022;5.686;2023-05-10T05:49:20;66.43;;;30.05;;
48534;SDS011;34323;52.022;5.686;2023-05-10T05:51:46;75.22;;;31.80;;
48534;SDS011;34323;52.022;5.686;2023-05-10T05:54:13;75.43;;;31.27;;
48534;SDS011;34323;52.022;5.686;2023-05-10T05:56:39;71.03;;;31.33;;
48534;SDS011;34323;52.022;5.686;2023-05-10T05:59:04;76.38;;;29.95;;
48534;SDS011;34323;52.022;5.686;2023-05-10T06:01:30;79.40;;;30.02;;
48534;SDS011;34323;52.022;5.686;2023-05-10T06:03:56;75.18;;;29.60;;
48534;SDS011;34323;52.022;5.686;2023-05-10T06:06:22;73.80;;;29.30;;
48534;SDS011;34323;52.022;5.686;2023-05-10T06:08:47;72.20;;;27.58;;
48534;SDS011;34323;52.022;5.686;2023-05-10T06:11:13;70.18;;;28.63;;
48534;SDS011;34323;52.022;5.686;2023-05-10T06:13:38;74.78;;;29.52;;
48534;SDS011;34323;52.022;5.686;2023-05-10T06:16:04;72.53;;;29.85;;
48534;SDS011;34323;52.022;5.686;2023-05-10T06:18:30;73.85;;;31.13;;
48534;SDS011;34323;52.022;5.686;2023-05-10T06:20:56;73.90;;;31.05;;
48534;SDS011;34323;52.022;5.686;2023-05-10T06:23:22;75.38;;;32.70;;
48534;SDS011;34323;52.022;5.686;2023-05-10T06:25:48;76.00;;;32.97;;
48534;SDS011;34323;52.022;5.686;2023-05-10T06:28:13;81.32;;;33.15;;
48534;SDS011;34323;52.022;5.686;2023-05-10T06:30:39;83.25;;;33.92;;
48534;SDS011;34323;52.022;5.686;2023-05-10T06:33:04;85.93;;;33.03;;
48534;SDS011;34323;52.022;5.686;2023-05-10T06:35:30;84.18;;;34.15;;
48534;SDS011;34323;52.022;5.686;2023-05-10T06:37:58;82.60;;;33.20;;
48534;SDS011;34323;52.022;5.686;2023-05-10T06:40:23;90.68;;;34.10;;
48534;SDS011;34323;52.022;5.686;2023-05-10T06:42:49;77.00;;;33.58;;
48534;SDS011;34323;52.022;5.686;2023-05-10T06:45:15;85.10;;;32.05;;
48534;SDS011;34323;52.022;5.686;2023-05-10T06:47:40;69.70;;;29.48;;
48534;SDS011;34323;52.022;5.686;2023-05-10T06:50:09;72.88;;;28.90;;
48534;SDS011;34323;52.022;5.686;2023-05-10T06:52:36;70.75;;;30.55;;
48534;SDS011;34323;52.022;5.686;2023-05-10T06:55:02;74.65;;;30.80;;
48534;SDS011;34323;52.022;5.686;2023-05-10T06:57:29;74.30;;;31.33;;
48534;SDS011;34323;52.022;5.686;2023-05-10T06:59:54;73.45;;;31.77;;
48534;SDS011;34323;52.022;5.686;2023-05-10T07:02:21;76.97;;;31.80;;
48534;SDS011;34323;52.022;5.686;2023-05-10T07:04:47;88.90;;;33.00;;
48534;SDS011;34323;52.022;5.686;2023-05-10T07:07:13;84.72;;;33.63;;
48534;SDS011;34323;52.022;5.686;2023-05-10T07:09:39;68.30;;;30.00;;
48534;SDS011;34323;52.022;5.686;2023-05-10T07:12:05;71.40;;;30.60;;
48534;SDS011;34323;52.022;5.686;2023-05-10T07:14:30;72.15;;;29.35;;
48534;SDS011;34323;52.022;5.686;2023-05-10T07:16:56;72.22;;;30.13;;
48534;SDS011;34323;52.022;5.686;2023-05-10T07:19:21;82.65;;;31.90;;
48534;SDS011;34323;52.022;5.686;2023-05-10T07:21:47;74.20;;;30.58;;
48534;SDS011;34323;52.022;5.686;2023-05-10T07:24:13;78.63;;;31.92;;
48534;SDS011;34323;52.022;5.686;2023-05-10T07:26:38;78.03;;;31.83;;
48534;SDS011;34323;52.022;5.686;2023-05-10T07:29:04;84.47;;;33.60;;
48534;SDS011;34323;52.022;5.686;2023-05-10T07:31:30;83.65;;;34.85;;
48534;SDS011;34323;52.022;5.686;2023-05-10T07:33:55;75.53;;;31.33;;
48534;SDS011;34323;52.022;5.686;2023-05-10T07:36:21;73.20;;;31.02;;
48534;SDS011;34323;52.022;5.686;2023-05-10T07:38:47;60.85;;;29.27;;
48534;SDS011;34323;52.022;5.686;2023-05-10T07:41:12;61.78;;;28.38;;
48534;SDS011;34323;52.022;5.686;2023-05-10T07:43:38;61.10;;;28.92;;
48534;SDS011;34323;52.022;5.686;2023-05-10T07:46:03;62.78;;;28.42;;
48534;SDS011;34323;52.022;5.686;2023-05-10T07:48:30;49.80;;;26.52;;
48534;SDS011;34323;52.022;5.686;2023-05-10T07:50:56;51.28;;;25.70;;
48534;SDS011;34323;52.022;5.686;2023-05-10T07:53:21;48.90;;;23.80;;
48534;SDS011;34323;52.022;5.686;2023-05-10T07:55:50;43.20;;;21.92;;
48534;SDS011;34323;52.022;5.686;2023-05-10T07:58:17;47.38;;;22.50;;
48534;SDS011;34323;52.022;5.686;2023-05-10T08:00:42;40.55;;;19.77;;
48534;SDS011;34323;52.022;5.686;2023-05-10T08:03:08;36.63;;;18.30;;
48534;SDS011;34323;52.022;5.686;2023-05-10T08:05:33;37.15;;;19.42;;
48534;SDS011;34323;52.022;5.686;2023-05-10T08:07:59;38.05;;;18.00;;
48534;SDS011;34323;52.022;5.686;2023-05-10T08:10:25;35.75;;;17.33;;
48534;SDS011;34323;52.022;5.686;2023-05-10T08:12:50;39.47;;;19.52;;
48534;SDS011;34323;52.022;5.686;2023-05-10T08:15:16;32.08;;;17.45;;
48534;SDS011;34323;52.022;5.686;2023-05-10T08:17:41;38.70;;;17.15;;
48534;SDS011;34323;52.022;5.686;2023-05-10T08:20:08;32.58;;;16.10;;
48534;SDS011;34323;52.022;5.686;2023-05-10T08:22:34;33.75;;;14.32;;
48534;SDS011;34323;52.022;5.686;2023-05-10T08:24:59;26.05;;;13.73;;
48534;SDS011;34323;52.022;5.686;2023-05-10T08:27:25;24.00;;;12.95;;
48534;SDS011;34323;52.022;5.686;2023-05-10T08:29:50;24.65;;;12.02;;
48534;SDS011;34323;52.022;5.686;2023-05-10T08:32:16;19.63;;;10.93;;
48534;SDS011;34323;52.022;5.686;2023-05-10T08:34:42;21.88;;;11.07;;
48534;SDS011;34323;52.022;5.686;2023-05-10T08:37:08;20.52;;;10.63;;
48534;SDS011;34323;52.022;5.686;2023-05-10T08:39:34;17.33;;;9.95;;
48534;SDS011;34323;52.022;5.686;2023-05-10T08:42:01;19.60;;;10.30;;
48534;SDS011;34323;52.022;5.686;2023-05-10T08:44:29;25.27;;;10.85;;
48534;SDS011;34323;52.022;5.686;2023-05-10T08:47:01;17.42;;;9.63;;
48534;SDS011;34323;52.022;5.686;2023-05-10T08:49:30;17.45;;;8.57;;
48534;SDS011;34323;52.022;5.686;2023-05-10T08:51:57;15.32;;;8.63;;
48534;SDS011;34323;52.022;5.686;2023-05-10T08:54:28;16.33;;;9.55;;
48534;SDS011;34323;52.022;5.686;2023-05-10T08:56:54;17.65;;;9.20;;
48534;SDS011;34323;52.022;5.686;2023-05-10T08:59:21;18.60;;;9.73;;
48534;SDS011;34323;52.022;5.686;2023-05-10T09:01:47;15.60;;;9.07;;
48534;SDS011;34323;52.022;5.686;2023-05-10T09:04:14;13.82;;;9.07;;
48534;SDS011;34323;52.022;5.686;2023-05-10T09:06:40;16.70;;;9.57;;
48534;SDS011;34323;52.022;5.686;2023-05-10T09:09:06;14.05;;;8.75;;
48534;SDS011;34323;52.022;5.686;2023-05-10T09:11:31;13.70;;;8.25;;
48534;SDS011;34323;52.022;5.686;2023-05-10T09:13:57;15.32;;;9.00;;
48534;SDS011;34323;52.022;5.686;2023-05-10T09:16:23;18.33;;;9.23;;
48534;SDS011;34323;52.022;5.686;2023-05-10T09:18:49;17.58;;;9.88;;
48534;SDS011;34323;52.022;5.686;2023-05-10T09:21:14;16.13;;;9.27;;
48534;SDS011;34323;52.022;5.686;2023-05-10T09:23:44;17.73;;;9.52;;
48534;SDS011;34323;52.022;5.686;2023-05-10T09:26:10;19.38;;;9.93;;
48534;SDS011;34323;52.022;5.686;2023-05-10T09:28:52;19.75;;;10.18;;
48534;SDS011;34323;52.022;5.686;2023-05-10T09:31:42;20.30;;;11.05;;
48534;SDS011;34323;52.022;5.686;2023-05-10T09:34:08;18.25;;;10.60;;
48534;SDS011;34323;52.022;5.686;2023-05-10T09:36:34;17.00;;;10.20;;
48534;SDS011;34323;52.022;5.686;2023-05-10T09:38:59;21.58;;;10.23;;
48534;SDS011;34323;52.022;5.686;2023-05-10T09:41:25;20.60;;;11.75;;
48534;SDS011;34323;52.022;5.686;2023-05-10T09:43:55;17.60;;;9.85;;
48534;SDS011;34323;52.022;5.686;2023-05-10T09:46:21;21.33;;;11.68;;
48534;SDS011;34323;52.022;5.686;2023-05-10T09:48:47;17.88;;;10.55;;
48534;SDS011;34323;52.022;5.686;2023-05-10T09:51:23;22.80;;;10.73;;
48534;SDS011;34323;52.022;5.686;2023-05-10T09:56:53;23.45;;;12.35;;
48534;SDS011;34323;52.022;5.686;2023-05-10T09:59:19;17.15;;;10.75;;
48534;SDS011;34323;52.022;5.686;2023-05-10T10:01:51;19.52;;;10.95;;
48534;SDS011;34323;52.022;5.686;2023-05-10T10:04:17;17.45;;;11.38;;
48534;SDS011;34323;52.022;5.686;2023-05-10T10:06:44;21.38;;;12.43;;
48534;SDS011;34323;52.022;5.686;2023-05-10T10:09:10;17.63;;;10.75;;
48534;SDS011;34323;52.022;5.686;2023-05-10T10:11:36;17.92;;;10.93;;
48534;SDS011;34323;52.022;5.686;2023-05-10T10:14:03;18.40;;;10.90;;
48534;SDS011;34323;52.022;5.686;2023-05-10T10:16:30;16.10;;;9.23;;
48534;SDS011;34323;52.022;5.686;2023-05-10T10:18:56;13.35;;;8.80;;
48534;SDS011;34323;52.022;5.686;2023-05-10T10:21:22;14.63;;;8.63;;
48534;SDS011;34323;52.022;5.686;2023-05-10T10:23:48;13.88;;;8.00;;
48534;SDS011;34323;52.022;5.686;2023-05-10T10:26:13;10.00;;;6.63;;
48534;SDS011;34323;52.022;5.686;2023-05-10T10:31:41;10.73;;;6.97;;
48534;SDS011;34323;52.022;5.686;2023-05-10T10:36:50;12.35;;;7.00;;
48534;SDS011;34323;52.022;5.686;2023-05-10T10:39:16;9.80;;;5.60;;
48534;SDS011;34323;52.022;5.686;2023-05-10T10:41:55;6.03;;;3.78;;
48534;SDS011;34323;52.022;5.686;2023-05-10T10:49:25;7.57;;;4.47;;
48534;SDS011;34323;52.022;5.686;2023-05-10T10:57:32;9.57;;;6.15;;
48534;SDS011;34323;52.022;5.686;2023-05-10T11:02:46;12.15;;;6.43;;
48534;SDS011;34323;52.022;5.686;2023-05-10T11:10:22;10.20;;;6.57;;
48534;SDS011;34323;52.022;5.686;2023-05-10T11:13:01;14.43;;;7.35;;
48534;SDS011;34323;52.022;5.686;2023-05-10T11:15:28;9.57;;;6.85;;
48534;SDS011;34323;52.022;5.686;2023-05-10T11:17:55;11.18;;;6.50;;
48534;SDS011;34323;52.022;5.686;2023-05-10T11:20:20;12.80;;;6.82;;
48534;SDS011;34323;52.022;5.686;2023-05-10T11:22:53;12.63;;;6.95;;
48534;SDS011;34323;52.022;5.686;2023-05-10T11:25:19;9.95;;;5.90;;
48534;SDS011;34323;52.022;5.686;2023-05-10T11:27:51;18.80;;;7.25;;
48534;SDS011;34323;52.022;5.686;2023-05-10T11:30:16;10.57;;;6.63;;
48534;SDS011;34323;52.022;5.686;2023-05-10T11:32:42;9.80;;;5.85;;
48534;SDS011;34323;52.022;5.686;2023-05-10T11:35:09;12.30;;;6.88;;
48534;SDS011;34323;52.022;5.686;2023-05-10T11:37:36;14.13;;;6.45;;
48534;SDS011;34323;52.022;5.686;2023-05-10T11:40:06;9.80;;;6.55;;
48534;SDS011;34323;52.022;5.686;2023-05-10T11:42:38;9.90;;;6.10;;
48534;SDS011;34323;52.022;5.686;2023-05-10T11:45:04;12.75;;;6.43;;
48534;SDS011;34323;52.022;5.686;2023-05-10T11:47:31;13.13;;;5.55;;
48534;SDS011;34323;52.022;5.686;2023-05-10T11:49:56;8.45;;;5.45;;
48534;SDS011;34323;52.022;5.686;2023-05-10T11:52:22;8.73;;;5.65;;
48534;SDS011;34323;52.022;5.686;2023-05-10T11:54:52;10.23;;;6.18;;
48534;SDS011;34323;52.022;5.686;2023-05-10T11:57:19;8.18;;;5.80;;
48534;SDS011;34323;52.022;5.686;2023-05-10T11:59:45;10.05;;;5.53;;
48534;SDS011;34323;52.022;5.686;2023-05-10T12:02:12;8.88;;;5.47;;
48534;SDS011;34323;52.022;5.686;2023-05-10T12:04:38;9.80;;;5.60;;
48534;SDS011;34323;52.022;5.686;2023-05-10T12:07:04;11.00;;;6.03;;
48534;SDS011;34323;52.022;5.686;2023-05-10T12:09:30;11.65;;;5.55;;
48534;SDS011;34323;52.022;5.686;2023-05-10T12:11:56;12.73;;;6.47;;
48534;SDS011;34323;52.022;5.686;2023-05-10T12:14:22;12.10;;;5.38;;
48534;SDS011;34323;52.022;5.686;2023-05-10T12:16:47;9.63;;;5.07;;
48534;SDS011;34323;52.022;5.686;2023-05-10T12:19:13;8.50;;;5.43;;
48534;SDS011;34323;52.022;5.686;2023-05-10T12:21:44;7.93;;;5.53;;
48534;SDS011;34323;52.022;5.686;2023-05-10T12:24:10;8.82;;;5.88;;
48534;SDS011;34323;52.022;5.686;2023-05-10T12:26:35;9.18;;;6.13;;
48534;SDS011;34323;52.022;5.686;2023-05-10T12:29:11;9.02;;;5.90;;
48534;SDS011;34323;52.022;5.686;2023-05-10T12:31:57;7.93;;;5.50;;
48534;SDS011;34323;52.022;5.686;2023-05-10T12:34:24;12.80;;;5.20;;
48534;SDS011;34323;52.022;5.686;2023-05-10T12:36:54;21.10;;;6.20;;
48534;SDS011;34323;52.022;5.686;2023-05-10T12:39:20;16.13;;;5.47;;
48534;SDS011;34323;52.022;5.686;2023-05-10T12:41:45;10.52;;;5.15;;
48534;SDS011;34323;52.022;5.686;2023-05-10T12:44:11;10.65;;;4.85;;
48534;SDS011;34323;52.022;5.686;2023-05-10T12:46:36;9.77;;;5.55;;
48534;SDS011;34323;52.022;5.686;2023-05-10T12:49:02;12.80;;;4.72;;
48534;SDS011;34323;52.022;5.686;2023-05-10T12:51:28;7.78;;;4.80;;
48534;SDS011;34323;52.022;5.686;2023-05-10T12:53:53;9.15;;;5.35;;
48534;SDS011;34323;52.022;5.686;2023-05-10T12:56:19;7.43;;;4.85;;
48534;SDS011;34323;52.022;5.686;2023-05-10T12:58:45;6.72;;;4.00;;
48534;SDS011;34323;52.022;5.686;2023-05-10T13:01:13;9.65;;;4.63;;
48534;SDS011;34323;52.022;5.686;2023-05-10T13:03:39;10.27;;;4.72;;
48534;SDS011;34323;52.022;5.686;2023-05-10T13:06:06;6.93;;;3.80;;
48534;SDS011;34323;52.022;5.686;2023-05-10T13:08:32;8.60;;;4.07;;
48534;SDS011;34323;52.022;5.686;2023-05-10T13:10:59;5.70;;;3.58;;
48534;SDS011;34323;52.022;5.686;2023-05-10T13:13:25;6.53;;;3.80;;
48534;SDS011;34323;52.022;5.686;2023-05-10T13:15:51;14.95;;;4.20;;
48534;SDS011;34323;52.022;5.686;2023-05-10T13:18:16;12.45;;;4.75;;
48534;SDS011;34323;52.022;5.686;2023-05-10T13:20:42;11.52;;;6.65;;
48534;SDS011;34323;52.022;5.686;2023-05-10T13:23:09;12.82;;;7.18;;
48534;SDS011;34323;52.022;5.686;2023-05-10T13:25:35;10.45;;;6.63;;
48534;SDS011;34323;52.022;5.686;2023-05-10T13:28:00;13.52;;;9.25;;
48534;SDS011;34323;52.022;5.686;2023-05-10T13:30:26;15.40;;;9.00;;
48534;SDS011;34323;52.022;5.686;2023-05-10T13:32:53;13.35;;;9.68;;
48534;SDS011;34323;52.022;5.686;2023-05-10T13:35:19;13.05;;;9.38;;
48534;SDS011;34323;52.022;5.686;2023-05-10T13:37:45;17.77;;;10.77;;
48534;SDS011;34323;52.022;5.686;2023-05-10T13:40:10;17.33;;;11.38;;
48534;SDS011;34323;52.022;5.686;2023-05-10T13:42:36;14.90;;;11.95;;
48534;SDS011;34323;52.022;5.686;2023-05-10T13:45:02;16.17;;;11.50;;
48534;SDS011;34323;52.022;5.686;2023-05-10T13:47:28;18.42;;;11.57;;
48534;SDS011;34323;52.022;5.686;2023-05-10T13:49:53;20.23;;;12.65;;
48534;SDS011;34323;52.022;5.686;2023-05-10T13:52:19;17.38;;;11.40;;
48534;SDS011;34323;52.022;5.686;2023-05-10T13:54:45;15.95;;;10.05;;
48534;SDS011;34323;52.022;5.686;2023-05-10T13:57:11;15.88;;;10.00;;
48534;SDS011;34323;52.022;5.686;2023-05-10T13:59:38;12.38;;;8.05;;
48534;SDS011;34323;52.022;5.686;2023-05-10T14:02:04;9.30;;;6.38;;
48534;SDS011;34323;52.022;5.686;2023-05-10T14:04:30;10.23;;;7.03;;
48534;SDS011;34323;52.022;5.686;2023-05-10T14:06:56;8.88;;;6.25;;
48534;SDS011;34323;52.022;5.686;2023-05-10T14:09:22;10.45;;;6.28;;
48534;SDS011;34323;52.022;5.686;2023-05-10T14:11:47;8.82;;;6.93;;
48534;SDS011;34323;52.022;5.686;2023-05-10T14:14:13;8.73;;;6.65;;
48534;SDS011;34323;52.022;5.686;2023-05-10T14:16:42;10.00;;;6.65;;
48534;SDS011;34323;52.022;5.686;2023-05-10T14:19:09;8.77;;;6.35;;
48534;SDS011;34323;52.022;5.686;2023-05-10T14:21:35;9.68;;;5.47;;
48534;SDS011;34323;52.022;5.686;2023-05-10T14:24:00;8.95;;;5.65;;
48534;SDS011;34323;52.022;5.686;2023-05-10T14:26:26;7.97;;;5.63;;
48534;SDS011;34323;52.022;5.686;2023-05-10T14:28:52;6.65;;;4.80;;
48534;SDS011;34323;52.022;5.686;2023-05-10T14:31:18;7.07;;;4.30;;
48534;SDS011;34323;52.022;5.686;2023-05-10T14:33:45;9.20;;;4.38;;
48534;SDS011;34323;52.022;5.686;2023-05-10T14:36:13;5.43;;;4.18;;
48534;SDS011;34323;52.022;5.686;2023-05-10T14:38:39;5.50;;;3.80;;
48534;SDS011;34323;52.022;5.686;2023-05-10T14:41:05;5.28;;;3.80;;
48534;SDS011;34323;52.022;5.686;2023-05-10T14:43:31;5.63;;;3.50;;
48534;SDS011;34323;52.022;5.686;2023-05-10T14:45:56;6.50;;;4.07;;
48534;SDS011;34323;52.022;5.686;2023-05-10T14:48:22;7.05;;;4.00;;
48534;SDS011;34323;52.022;5.686;2023-05-10T14:50:47;8.82;;;4.50;;
48534;SDS011;34323;52.022;5.686;2023-05-10T14:53:14;6.78;;;3.70;;
48534;SDS011;34323;52.022;5.686;2023-05-10T14:55:40;13.05;;;4.20;;
48534;SDS011;34323;52.022;5.686;2023-05-10T14:58:05;6.35;;;3.63;;
48534;SDS011;34323;52.022;5.686;2023-05-10T15:00:31;10.32;;;4.88;;
48534;SDS011;34323;52.022;5.686;2023-05-10T15:02:57;7.95;;;4.30;;
48534;SDS011;34323;52.022;5.686;2023-05-10T15:05:22;5.65;;;4.28;;
48534;SDS011;34323;52.022;5.686;2023-05-10T15:07:48;8.75;;;4.20;;